Time;durP1;ratioP1;P1;durP2;ratioP2;P2;SDS_P1;SDS_P2;PMS_P1;PMS_P2;Temp;Humidity;BMP_temperature;BMP_pressure;BME280_temperature;BME280_humidity;BME280_pressure;Samples;Min_cycle;Max_cycle;Signal;HPM_P1;HPM_P2
2021/04/15 00:00:34;;;;;;;14.93;9.85;;;;;;;;;;5091222;28;20072;-67
2021/04/15 00:03:01;;;;;;;12.75;9.40;;;;;;;;;;5090999;28;20254;-70
2021/04/15 00:05:29;;;;;;;14.55;9.75;;;;;;;;;;5091490;28;20161;-72
2021/04/15 00:07:55;;;;;;;13.63;8.70;;;;;;;;;;5091139;28;20484;-71
2021/04/15 00:10:24;;;;;;;14.60;9.32;;;;;;;;;;5091198;28;20035;-71
2021/04/15 00:12:50;;;;;;;11.52;8.73;;;;;;;;;;5091357;28;20024;-70
2021/04/15 00:15:17;;;;;;;14.75;9.23;;;;;;;;;;5091217;28;20032;-70
2021/04/15 00:17:43;;;;;;;11.77;8.73;;;;;;;;;;5091162;28;20024;-71
2021/04/15 00:20:09;;;;;;;12.57;8.93;;;;;;;;;;5091039;28;20036;-71
2021/04/15 00:22:36;;;;;;;13.25;8.48;;;;;;;;;;5090891;28;20471;-71
2021/04/15 00:25:02;;;;;;;12.57;8.35;;;;;;;;;;5090960;28;20494;-67
2021/04/15 00:27:28;;;;;;;12.40;8.60;;;;;;;;;;5091292;28;20063;-68
2021/04/15 00:29:54;;;;;;;15.73;8.68;;;;;;;;;;5090735;28;20048;-70
2021/04/15 00:32:20;;;;;;;12.80;8.65;;;;;;;;;;5090885;28;20032;-71
2021/04/15 00:34:46;;;;;;;13.57;8.63;;;;;;;;;;5091017;28;20034;-67
2021/04/15 00:37:13;;;;;;;12.80;8.45;;;;;;;;;;5091114;28;20085;-70
2021/04/15 00:39:39;;;;;;;13.77;8.45;;;;;;;;;;5090743;28;20119;-71
2021/04/15 00:42:05;;;;;;;11.00;7.93;;;;;;;;;;5090749;28;20035;-68
2021/04/15 00:44:31;;;;;;;12.32;8.13;;;;;;;;;;5091028;28;20036;-70
2021/04/15 00:47:03;;;;;;;11.07;7.85;;;;;;;;;;5090676;28;20031;-71
2021/04/15 00:49:34;;;;;;;11.43;7.15;;;;;;;;;;5090837;28;20028;-66
2021/04/15 00:52:03;;;;;;;11.43;7.75;;;;;;;;;;5090810;28;20107;-67
2021/04/15 00:54:29;;;;;;;12.43;7.32;;;;;;;;;;5090564;28;20024;-69
2021/04/15 00:56:56;;;;;;;11.18;7.28;;;;;;;;;;5090860;28;20027;-70
2021/04/15 00:59:22;;;;;;;11.60;7.78;;;;;;;;;;5090679;28;20141;-67
2021/04/15 01:01:48;;;;;;;11.95;8.30;;;;;;;;;;5090761;28;20368;-70
2021/04/15 01:04:15;;;;;;;12.50;7.45;;;;;;;;;;5090614;28;20043;-71
2021/04/15 01:06:41;;;;;;;10.65;7.07;;;;;;;;;;5090775;28;20123;-71
2021/04/15 01:09:07;;;;;;;12.48;7.53;;;;;;;;;;5090535;28;20043;-68
2021/04/15 01:11:54;;;;;;;14.18;7.47;;;;;;;;;;5091997;28;20032;-69
2021/04/15 01:14:40;;;;;;;11.20;7.60;;;;;;;;;;5093063;28;20016;-68
2021/04/15 01:17:29;;;;;;;11.77;7.22;;;;;;;;;;5093818;28;20020;-68
2021/04/15 01:20:14;;;;;;;12.20;7.55;;;;;;;;;;5011963;28;20041;-69
2021/04/15 01:23:06;;;;;;;12.88;7.40;;;;;;;;;;5011951;28;20093;-67
2021/04/15 01:25:38;;;;;;;11.38;7.47;;;;;;;;;;4982815;28;20117;-71
2021/04/15 01:28:04;;;;;;;;;;;;;;;;;;5012173;28;20064;-67
2021/04/15 01:30:33;;;;;;;14.63;8.10;;;;;;;;;;5012058;28;19973;-68
2021/04/15 01:33:17;;;;;;;16.20;8.93;;;;;;;;;;5011920;28;20485;-67
2021/04/15 01:35:50;;;;;;;13.32;9.00;;;;;;;;;;5011755;28;20034;-69
2021/04/15 01:38:23;;;;;;;13.02;8.32;;;;;;;;;;5011560;28;20100;-71
2021/04/15 01:40:49;;;;;;;;;;;;;;;;;;4995467;28;20414;-69
2021/04/15 01:43:15;;;;;;;12.13;7.57;;;;;;;;;;5011467;28;20013;-70
2021/04/15 01:45:42;;;;;;;11.23;7.22;;;;;;;;;;5011203;28;20049;-70
2021/04/15 01:48:12;;;;;;;15.52;8.15;;;;;;;;;;5011587;28;20400;-66
2021/04/15 01:50:41;;;;;;;13.90;7.25;;;;;;;;;;5011556;28;20038;-70
2021/04/15 01:53:10;;;;;;;11.50;7.55;;;;;;;;;;5011686;28;20579;-66
2021/04/15 01:55:56;;;;;;;12.07;7.22;;;;;;;;;;5011486;28;20026;-68
2021/04/15 01:58:45;;;;;;;13.10;7.22;;;;;;;;;;5093278;28;20040;-66
2021/04/15 02:01:17;;;;;;;13.07;7.55;;;;;;;;;;5093767;28;20028;-66
2021/04/15 02:03:44;;;;;;;13.27;7.47;;;;;;;;;;5093414;28;20048;-65
2021/04/15 02:06:14;;;;;;;13.27;7.05;;;;;;;;;;5093700;28;20144;-67
2021/04/15 02:08:45;;;;;;;16.60;8.07;;;;;;;;;;5093133;28;20505;-66
2021/04/15 02:11:32;;;;;;;9.52;5.68;;;;;;;;;;5093724;28;20065;-68
2021/04/15 02:13:59;;;;;;;12.93;7.75;;;;;;;;;;5093053;28;20464;-68
2021/04/15 02:16:27;;;;;;;11.60;7.35;;;;;;;;;;5092985;28;20059;-67
2021/04/15 02:18:57;;;;;;;16.50;8.15;;;;;;;;;;5093185;28;20024;-72
2021/04/15 02:21:32;;;;;;;13.93;7.97;;;;;;;;;;5093217;28;20032;-69
2021/04/15 02:24:07;;;;;;;10.50;7.20;;;;;;;;;;5092920;28;20108;-68
2021/04/15 02:26:37;;;;;;;12.32;7.18;;;;;;;;;;5093513;28;20395;-66
2021/04/15 02:29:09;;;;;;;12.52;7.25;;;;;;;;;;5092788;28;20127;-66
2021/04/15 02:31:57;;;;;;;11.20;7.53;;;;;;;;;;5092943;28;20114;-66
2021/04/15 02:34:31;;;;;;;13.38;7.70;;;;;;;;;;5091662;28;20024;-67
2021/04/15 02:37:08;;;;;;;12.88;7.75;;;;;;;;;;5093035;28;20035;-71
2021/04/15 02:39:35;;;;;;;12.52;7.53;;;;;;;;;;5092884;28;20089;-66
2021/04/15 02:42:04;;;;;;;12.52;7.35;;;;;;;;;;5092968;28;20103;-71
2021/04/15 02:44:35;;;;;;;14.75;7.57;;;;;;;;;;5092689;28;20452;-69
2021/04/15 02:47:04;;;;;;;13.27;7.55;;;;;;;;;;5092415;28;20035;-71
2021/04/15 02:49:31;;;;;;;13.73;7.72;;;;;;;;;;5092850;28;20032;-65
2021/04/15 02:52:06;;;;;;;12.98;7.60;;;;;;;;;;5092648;28;20075;-69
2021/04/15 02:54:37;;;;;;;11.52;7.47;;;;;;;;;;5092723;28;20102;-66
2021/04/15 02:57:06;;;;;;;11.48;7.10;;;;;;;;;;5092905;28;20027;-66
2021/04/15 02:59:38;;;;;;;13.98;8.10;;;;;;;;;;5092423;28;20066;-70
2021/04/15 03:02:07;;;;;;;14.35;7.43;;;;;;;;;;5092530;28;20032;-70
2021/04/15 03:04:34;;;;;;;12.70;7.43;;;;;;;;;;5092181;28;20035;-68
2021/04/15 03:07:02;;;;;;;12.30;7.22;;;;;;;;;;5092431;28;20411;-69
2021/04/15 03:09:31;;;;;;;13.07;7.55;;;;;;;;;;5092288;28;20063;-68
2021/04/15 03:12:02;;;;;;;16.67;6.82;;;;;;;;;;5092310;28;20059;-70
2021/04/15 03:14:54;;;;;;;12.18;7.07;;;;;;;;;;5092444;28;20495;-69
2021/04/15 03:17:22;;;;;;;11.55;7.18;;;;;;;;;;5088307;28;20036;-71
2021/04/15 03:19:58;;;;;;;17.75;9.60;;;;;;;;;;5092024;28;20093;-71
2021/04/15 03:22:37;;;;;;;17.42;10.13;;;;;;;;;;5092199;28;20020;-67
2021/04/15 03:25:03;;;;;;;12.43;7.57;;;;;;;;;;5091505;28;20063;-70
2021/04/15 03:27:39;;;;;;;12.05;7.20;;;;;;;;;;5092094;28;20028;-70
2021/04/15 03:30:27;;;;;;;12.02;6.80;;;;;;;;;;5091778;28;20133;-70
2021/04/15 03:33:15;;;;;;;13.00;7.47;;;;;;;;;;5091849;28;20093;-68
2021/04/15 03:35:56;;;;;;;12.57;7.68;;;;;;;;;;5091783;28;20081;-66
2021/04/15 03:38:43;;;;;;;11.85;7.25;;;;;;;;;;5091041;28;20028;-68
2021/04/15 03:41:14;;;;;;;16.25;7.60;;;;;;;;;;5009294;28;20533;-71
2021/04/15 03:43:48;;;;;;;15.13;7.75;;;;;;;;;;5009122;28;20116;-67
2021/04/15 03:46:33;;;;;;;12.68;7.70;;;;;;;;;;5009303;28;20038;-69
2021/04/15 03:49:03;;;;;;;11.77;7.13;;;;;;;;;;5009153;28;20087;-66
2021/04/15 03:51:38;;;;;;;14.98;7.05;;;;;;;;;;5009275;28;20022;-71
2021/04/15 03:54:05;;;;;;;16.10;8.00;;;;;;;;;;5009356;28;20046;-67
2021/04/15 03:56:35;;;;;;;13.10;7.85;;;;;;;;;;5009322;28;20029;-70
2021/04/15 03:59:06;;;;;;;13.63;7.00;;;;;;;;;;5009094;28;20520;-71
2021/04/15 04:01:33;;;;;;;16.30;8.15;;;;;;;;;;5008909;28;20033;-66
2021/04/15 04:04:02;;;;;;;14.85;7.65;;;;;;;;;;5008739;28;20041;-70
2021/04/15 04:06:28;;;;;;;15.18;7.50;;;;;;;;;;5009166;28;20104;-69
2021/04/15 04:08:58;;;;;;;13.88;7.70;;;;;;;;;;5009342;28;20026;-67
2021/04/15 04:11:25;;;;;;;12.82;7.57;;;;;;;;;;5009267;28;20116;-70
2021/04/15 04:13:56;;;;;;;12.93;7.30;;;;;;;;;;5008790;28;20025;-67
2021/04/15 04:16:22;;;;;;;16.02;7.13;;;;;;;;;;5008808;28;20038;-72
2021/04/15 04:18:48;;;;;;;12.48;6.78;;;;;;;;;;5068798;28;20090;-71
2021/04/15 04:21:26;;;;;;;11.45;6.95;;;;;;;;;;5091046;28;20032;-66
2021/04/15 04:23:52;;;;;;;11.73;7.05;;;;;;;;;;5090932;28;20031;-68
2021/04/15 04:26:27;;;;;;;11.45;6.53;;;;;;;;;;5090973;28;20034;-70
2021/04/15 04:29:02;;;;;;;11.48;7.35;;;;;;;;;;5090799;28;20500;-66
2021/04/15 04:31:32;;;;;;;16.27;7.03;;;;;;;;;;5091049;28;20032;-69
2021/04/15 04:33:58;;;;;;;12.57;6.97;;;;;;;;;;5090672;28;20032;-67
2021/04/15 04:36:25;;;;;;;13.70;8.13;;;;;;;;;;5091078;28;20480;-67
2021/04/15 04:38:57;;;;;;;11.60;7.63;;;;;;;;;;5090961;28;20090;-66
2021/04/15 04:41:43;;;;;;;15.80;8.15;;;;;;;;;;5090985;28;20047;-69
2021/04/15 04:44:14;;;;;;;10.77;7.28;;;;;;;;;;5090769;28;20051;-66
2021/04/15 04:46:45;;;;;;;13.93;7.80;;;;;;;;;;5090949;28;20032;-71
2021/04/15 04:49:16;;;;;;;15.38;8.68;;;;;;;;;;5090741;28;20028;-71
2021/04/15 04:51:45;;;;;;;13.32;8.00;;;;;;;;;;5093692;28;20052;-68
2021/04/15 04:54:12;;;;;;;14.00;7.95;;;;;;;;;;5094835;28;20016;-67
2021/04/15 04:56:41;;;;;;;13.30;7.82;;;;;;;;;;5094775;28;20024;-67
2021/04/15 04:59:18;;;;;;;18.25;11.18;;;;;;;;;;5094454;28;20451;-67
2021/04/15 05:01:45;;;;;;;15.95;8.45;;;;;;;;;;5094638;28;20082;-71
2021/04/15 05:04:12;;;;;;;15.30;8.15;;;;;;;;;;5094616;28;20024;-69
2021/04/15 05:06:42;;;;;;;17.17;8.95;;;;;;;;;;5094518;28;20020;-67
2021/04/15 05:09:12;;;;;;;15.80;9.02;;;;;;;;;;5093335;28;20028;-70
2021/04/15 05:11:43;;;;;;;15.75;8.05;;;;;;;;;;5094400;28;20550;-66
2021/04/15 05:14:10;;;;;;;14.43;7.90;;;;;;;;;;5094512;28;20031;-70
2021/04/15 05:16:45;;;;;;;13.15;7.75;;;;;;;;;;5094430;28;20032;-70
2021/04/15 05:19:11;;;;;;;19.90;10.20;;;;;;;;;;5083160;28;20040;-70
2021/04/15 05:21:38;;;;;;;13.27;7.55;;;;;;;;;;5074060;28;20063;-70
2021/04/15 05:24:12;;;;;;;14.70;7.78;;;;;;;;;;5089260;28;20021;-70
2021/04/15 05:26:40;;;;;;;15.13;7.68;;;;;;;;;;5094308;28;20028;-65
2021/04/15 05:29:07;;;;;;;18.73;8.48;;;;;;;;;;5086833;28;20048;-65
2021/04/15 05:31:38;;;;;;;14.40;7.68;;;;;;;;;;5083526;28;20047;-65
2021/04/15 05:34:07;;;;;;;17.23;7.78;;;;;;;;;;5075950;28;20055;-69
2021/04/15 05:36:37;;;;;;;14.15;7.97;;;;;;;;;;5085940;28;20050;-67
2021/04/15 05:39:07;;;;;;;12.95;7.57;;;;;;;;;;5093580;28;20031;-64
2021/04/15 05:41:35;;;;;;;13.30;8.35;;;;;;;;;;5073526;28;20024;-70
2021/04/15 05:44:07;;;;;;;12.25;7.35;;;;;;;;;;5073536;28;20025;-70
2021/04/15 05:46:42;;;;;;;12.98;7.40;;;;;;;;;;5089610;28;20028;-70
2021/04/15 05:49:11;;;;;;;14.52;7.90;;;;;;;;;;5093401;28;20719;-72
2021/04/15 05:51:44;;;;;;;13.93;7.55;;;;;;;;;;5088706;28;20036;-69
2021/04/15 05:54:10;;;;;;;;;;;;;;;;;;5074705;28;20085;-66
2021/04/15 05:56:39;;;;;;;12.98;8.07;;;;;;;;;;5075487;28;19912;-68
2021/04/15 05:59:12;;;;;;;14.80;7.07;;;;;;;;;;5088797;28;20048;-68
2021/04/15 06:01:50;;;;;;;13.95;7.68;;;;;;;;;;5092830;28;20506;-65
2021/04/15 06:04:39;;;;;;;17.20;7.68;;;;;;;;;;5090612;28;20077;-70
2021/04/15 06:07:06;;;;;;;17.63;8.52;;;;;;;;;;5041259;28;20664;-67
2021/04/15 06:09:32;;;;;;;13.85;8.05;;;;;;;;;;5041805;28;20048;-66
2021/04/15 06:12:10;;;;;;;14.25;7.65;;;;;;;;;;5030840;28;20034;-70
2021/04/15 06:14:45;;;;;;;12.93;7.30;;;;;;;;;;5030414;28;20060;-63
2021/04/15 06:17:14;;;;;;;16.35;8.27;;;;;;;;;;5030540;28;20025;-71
2021/04/15 06:19:43;;;;;;;15.68;7.43;;;;;;;;;;5038030;28;20029;-65
2021/04/15 06:22:15;;;;;;;15.65;7.45;;;;;;;;;;5039009;28;20095;-64
2021/04/15 06:24:42;;;;;;;16.83;7.68;;;;;;;;;;5039256;28;20450;-65
2021/04/15 06:27:09;;;;;;;14.55;8.30;;;;;;;;;;5040782;28;20036;-67
2021/04/15 06:29:41;;;;;;;14.40;7.65;;;;;;;;;;5039206;28;20053;-66
2021/04/15 06:32:12;;;;;;;16.15;7.53;;;;;;;;;;5037406;28;20480;-67
2021/04/15 06:34:39;;;;;;;14.57;7.85;;;;;;;;;;5022579;28;20024;-70
2021/04/15 06:37:14;;;;;;;14.63;7.40;;;;;;;;;;5039772;28;20372;-68
2021/04/15 06:39:47;;;;;;;15.52;7.72;;;;;;;;;;5041364;28;20037;-65
2021/04/15 06:42:16;;;;;;;14.88;7.10;;;;;;;;;;5041705;28;20029;-64
2021/04/15 06:45:01;;;;;;;12.57;7.53;;;;;;;;;;5072751;28;20068;-68
2021/04/15 06:47:35;;;;;;;12.30;7.20;;;;;;;;;;5083550;28;20018;-65
2021/04/15 06:50:07;;;;;;;15.55;7.72;;;;;;;;;;5079299;28;20343;-65
2021/04/15 06:52:36;;;;;;;15.35;7.63;;;;;;;;;;5080856;28;20016;-65
2021/04/15 06:55:02;;;;;;;11.90;6.70;;;;;;;;;;5082431;28;20021;-69
2021/04/15 06:57:38;;;;;;;15.25;8.23;;;;;;;;;;5080778;28;20520;-73
2021/04/15 07:00:06;;;;;;;16.92;8.38;;;;;;;;;;5080746;28;20556;-65
2021/04/15 07:02:45;;;;;;;12.07;7.32;;;;;;;;;;5082669;28;20050;-66
2021/04/15 07:05:18;;;;;;;12.35;8.40;;;;;;;;;;5082745;28;20467;-71
2021/04/15 07:07:50;;;;;;;12.07;7.68;;;;;;;;;;5076751;28;20398;-66
2021/04/15 07:10:34;;;;;;;13.90;7.55;;;;;;;;;;5082882;28;20049;-71
2021/04/15 07:13:12;;;;;;;12.40;7.28;;;;;;;;;;5079514;28;20349;-64
2021/04/15 07:15:48;;;;;;;14.95;8.23;;;;;;;;;;5078395;28;20056;-65
2021/04/15 07:18:26;;;;;;;15.82;8.05;;;;;;;;;;5089102;28;20048;-75
2021/04/15 07:21:04;;;;;;;11.25;8.18;;;;;;;;;;5091426;28;20036;-71
2021/04/15 07:23:49;;;;;;;14.65;9.20;;;;;;;;;;5081112;28;20077;-75
2021/04/15 13:51:13;;;;;;;10.38;6.85;;;;;;;;;;5107804;27;20377;-75
2021/04/15 13:53:57;;;;;;;10.57;7.22;;;;;;;;;;5095246;28;20103;-69
2021/04/15 13:56:32;;;;;;;13.80;7.95;;;;;;;;;;5087198;28;20020;-71
2021/04/15 13:58:58;;;;;;;12.68;7.68;;;;;;;;;;5088021;28;20070;-65
2021/04/15 14:01:44;;;;;;;12.23;7.07;;;;;;;;;;5087623;28;20028;-69
2021/04/15 14:04:30;;;;;;;12.52;7.40;;;;;;;;;;5087803;28;20099;-65
2021/04/15 14:07:16;;;;;;;14.10;8.00;;;;;;;;;;5087042;28;20029;-65
2021/04/15 14:09:42;;;;;;;12.45;8.38;;;;;;;;;;5087246;28;20028;-69
2021/04/15 14:12:34;;;;;;;10.88;7.32;;;;;;;;;;5087355;28;20509;-70
2021/04/15 14:15:01;;;;;;;11.45;7.53;;;;;;;;;;5070794;28;20040;-67
2021/04/15 14:17:30;;;;;;;12.75;7.53;;;;;;;;;;5087503;28;20480;-70
2021/04/15 14:20:07;;;;;;;9.95;6.95;;;;;;;;;;5087049;28;20097;-71
2021/04/15 14:22:34;;;;;;;12.77;7.13;;;;;;;;;;5086920;28;20479;-70
2021/04/15 14:25:05;;;;;;;12.80;7.10;;;;;;;;;;5087603;28;20110;-69
2021/04/15 14:27:34;;;;;;;13.60;7.55;;;;;;;;;;5087588;28;20025;-75
2021/04/15 14:30:08;;;;;;;11.55;7.63;;;;;;;;;;5086731;28;20085;-68
2021/04/15 14:32:38;;;;;;;10.07;7.10;;;;;;;;;;5084803;28;20103;-68
2021/04/15 14:35:13;;;;;;;15.18;9.85;;;;;;;;;;5087070;28;20157;-65
2021/04/15 14:37:40;;;;;;;14.40;8.88;;;;;;;;;;5087000;28;20016;-74
2021/04/15 14:40:18;;;;;;;12.82;9.55;;;;;;;;;;5083801;28;20051;-72
2021/04/15 14:42:45;;;;;;;13.57;8.43;;;;;;;;;;5083630;28;20514;-65
2021/04/15 14:45:11;;;;;;;11.38;8.18;;;;;;;;;;5085963;28;20527;-65
2021/04/15 14:47:39;;;;;;;12.52;8.00;;;;;;;;;;5086398;28;20028;-69
2021/04/15 14:50:10;;;;;;;18.70;12.48;;;;;;;;;;5085306;28;20052;-67
2021/04/15 14:52:36;;;;;;;10.85;7.45;;;;;;;;;;5086394;28;20020;-73
2021/04/15 14:55:03;;;;;;;12.07;8.13;;;;;;;;;;5084762;28;20056;-65
2021/04/15 14:57:30;;;;;;;12.07;8.65;;;;;;;;;;5086162;28;20394;-69
2021/04/15 15:00:03;;;;;;;16.48;9.88;;;;;;;;;;5086742;28;20036;-72
2021/04/15 15:02:31;;;;;;;13.88;8.75;;;;;;;;;;5078296;28;20028;-64
2021/04/15 15:04:59;;;;;;;11.93;8.30;;;;;;;;;;5083061;28;20028;-68
2021/04/15 15:07:25;;;;;;;12.45;8.88;;;;;;;;;;5087851;28;20057;-75
2021/04/15 15:09:52;;;;;;;12.13;8.80;;;;;;;;;;5073108;28;20082;-73
2021/04/15 15:12:30;;;;;;;15.63;8.50;;;;;;;;;;5072674;28;20017;-74
2021/04/15 15:14:57;;;;;;;13.93;8.98;;;;;;;;;;5072326;28;20036;-65
2021/04/15 15:17:25;;;;;;;12.88;8.25;;;;;;;;;;5079898;28;20020;-64
2021/04/15 15:19:53;;;;;;;14.45;9.57;;;;;;;;;;5082547;28;20052;-65
2021/04/15 15:22:35;;;;;;;10.80;7.38;;;;;;;;;;5091614;28;20028;-64
2021/04/15 15:25:02;;;;;;;11.35;7.97;;;;;;;;;;5093053;28;20115;-65
2021/04/15 15:27:30;;;;;;;12.27;7.32;;;;;;;;;;5092504;28;20035;-63
2021/04/15 15:30:16;;;;;;;16.25;8.27;;;;;;;;;;5089141;28;20027;-70
2021/04/15 15:32:44;;;;;;;16.13;9.05;;;;;;;;;;5080143;28;20557;-70
2021/04/15 15:35:13;;;;;;;16.17;8.90;;;;;;;;;;5088866;28;20031;-72
2021/04/15 15:37:40;;;;;;;11.93;8.30;;;;;;;;;;5083583;28;20027;-70
2021/04/15 15:40:42;;;;;;;15.35;8.93;;;;;;;;;;5092431;28;20063;-68
2021/04/15 15:43:11;;;;;;;13.75;7.45;;;;;;;;;;4993180;28;20077;-73
2021/04/15 15:45:37;;;;;;;11.90;7.50;;;;;;;;;;5009928;28;20049;-71
2021/04/15 15:48:03;;;;;;;16.02;8.50;;;;;;;;;;5009467;28;20030;-73
2021/04/15 15:50:31;;;;;;;11.65;7.25;;;;;;;;;;5009013;28;20103;-73
2021/04/15 15:53:16;;;;;;;12.52;6.22;;;;;;;;;;5009651;28;20033;-75
2021/04/15 15:55:42;;;;;;;9.38;5.55;;;;;;;;;;5010020;28;20391;-70
2021/04/15 15:58:08;;;;;;;8.95;5.38;;;;;;;;;;5008813;28;20116;-70
2021/04/15 16:00:35;;;;;;;9.48;5.60;;;;;;;;;;5009859;28;20164;-71
2021/04/15 16:03:16;;;;;;;13.30;6.00;;;;;;;;;;5009585;28;20045;-69
2021/04/15 16:05:43;;;;;;;9.63;6.38;;;;;;;;;;4988725;28;20054;-75
2021/04/15 16:08:17;;;;;;;9.65;6.13;;;;;;;;;;4989636;28;20434;-67
2021/04/15 16:10:45;;;;;;;10.32;5.95;;;;;;;;;;4989804;28;20129;-73
2021/04/15 16:13:26;;;;;;;14.88;7.20;;;;;;;;;;4988304;28;20073;-69
2021/04/15 16:16:15;;;;;;;12.05;6.85;;;;;;;;;;4986752;28;20022;-75
2021/04/15 16:18:42;;;;;;;11.15;6.53;;;;;;;;;;5008426;28;20160;-67
2021/04/15 16:21:19;;;;;;;9.25;5.70;;;;;;;;;;5008374;28;20129;-71
2021/04/15 16:23:46;;;;;;;9.82;5.30;;;;;;;;;;5008864;28;20026;-71
2021/04/15 16:26:13;;;;;;;7.60;4.35;;;;;;;;;;4991580;28;20030;-69
2021/04/15 16:28:39;;;;;;;7.85;4.60;;;;;;;;;;5008849;28;20061;-69
2021/04/15 16:31:05;;;;;;;7.40;4.47;;;;;;;;;;5008976;28;20036;-72
2021/04/15 16:33:32;;;;;;;6.32;4.18;;;;;;;;;;5008851;28;20030;-68
2021/04/15 16:35:58;;;;;;;7.22;4.35;;;;;;;;;;5008523;28;20498;-73
2021/04/15 16:38:32;;;;;;;8.30;4.70;;;;;;;;;;5008748;28;20061;-71
2021/04/15 16:40:58;;;;;;;9.20;5.10;;;;;;;;;;5007332;28;20045;-67
2021/04/15 16:43:25;;;;;;;9.13;5.70;;;;;;;;;;5007585;28;20034;-65
2021/04/15 16:45:51;;;;;;;7.25;4.68;;;;;;;;;;5008744;28;20116;-75
2021/04/15 16:48:17;;;;;;;10.18;4.55;;;;;;;;;;5008948;28;20034;-78
2021/04/15 16:50:44;;;;;;;9.15;5.43;;;;;;;;;;5007732;28;20103;-70
2021/04/15 16:53:10;;;;;;;8.77;5.10;;;;;;;;;;5008551;28;20088;-78
2021/04/15 16:55:36;;;;;;;9.18;5.43;;;;;;;;;;5026293;28;20029;-78
2021/04/15 16:58:04;;;;;;;8.75;5.50;;;;;;;;;;5070001;28;20376;-77
2021/04/15 17:00:36;;;;;;;10.00;5.72;;;;;;;;;;5070472;28;20025;-61
2021/04/15 17:03:02;;;;;;;12.63;5.80;;;;;;;;;;5069417;28;20048;-63
2021/04/15 17:05:30;;;;;;;10.10;6.45;;;;;;;;;;5069840;28;20028;-71
2021/04/15 17:08:00;;;;;;;9.57;6.18;;;;;;;;;;5070415;28;20021;-65
2021/04/15 17:10:27;;;;;;;8.45;5.97;;;;;;;;;;5070499;28;20115;-67
2021/04/15 17:12:53;;;;;;;12.25;5.88;;;;;;;;;;5070123;28;20055;-75
2021/04/15 17:15:20;;;;;;;10.93;6.05;;;;;;;;;;5070513;28;20027;-75
2021/04/15 17:17:46;;;;;;;11.88;6.00;;;;;;;;;;5070591;28;20028;-71
2021/04/15 17:20:13;;;;;;;10.80;5.72;;;;;;;;;;5067111;28;20129;-69
2021/04/15 17:22:39;;;;;;;11.77;6.25;;;;;;;;;;5069770;28;20020;-75
2021/04/15 17:25:06;;;;;;;11.50;5.97;;;;;;;;;;5070228;28;20032;-79
2021/04/15 17:27:32;;;;;;;10.13;5.30;;;;;;;;;;5069951;28;20496;-72
2021/04/15 17:29:58;;;;;;;9.13;5.10;;;;;;;;;;5069980;28;20032;-73
2021/04/15 17:32:25;;;;;;;10.13;5.30;;;;;;;;;;5070237;28;20456;-71
2021/04/15 17:34:51;;;;;;;10.25;5.68;;;;;;;;;;5070769;28;20418;-70
2021/04/15 17:37:17;;;;;;;10.30;5.30;;;;;;;;;;5052421;28;20108;-68
2021/04/15 17:39:43;;;;;;;10.02;5.70;;;;;;;;;;5070326;28;20043;-68
2021/04/15 17:42:10;;;;;;;12.57;5.68;;;;;;;;;;5069182;28;20082;-64
2021/04/15 17:44:36;;;;;;;8.00;5.32;;;;;;;;;;5073599;28;20035;-72
2021/04/15 17:47:02;;;;;;;10.30;6.00;;;;;;;;;;5069789;28;20056;-70
2021/04/15 17:49:29;;;;;;;10.10;5.88;;;;;;;;;;5069083;28;20058;-69
2021/04/15 17:51:56;;;;;;;10.18;5.50;;;;;;;;;;5053270;28;20477;-70
2021/04/15 17:54:23;;;;;;;10.90;5.60;;;;;;;;;;5058093;28;20032;-70
2021/04/15 17:56:49;;;;;;;12.27;6.38;;;;;;;;;;5069237;28;20082;-68
2021/04/15 17:59:16;;;;;;;15.52;8.35;;;;;;;;;;5069288;28;20394;-68
2021/04/15 18:01:42;;;;;;;13.75;7.82;;;;;;;;;;5070074;28;20483;-70
2021/04/15 18:04:08;;;;;;;12.60;6.88;;;;;;;;;;5068890;28;20036;-67
2021/04/15 18:06:34;;;;;;;10.35;5.95;;;;;;;;;;5069345;28;20393;-68
2021/04/15 18:09:01;;;;;;;11.93;6.13;;;;;;;;;;5069306;28;20032;-69
2021/04/15 18:11:27;;;;;;;12.95;6.15;;;;;;;;;;5068365;28;20040;-68
2021/04/15 18:13:54;;;;;;;10.90;6.18;;;;;;;;;;5068778;28;20028;-67
2021/04/15 18:16:21;;;;;;;11.68;6.50;;;;;;;;;;5067262;28;20024;-70
2021/04/15 18:18:47;;;;;;;13.85;7.55;;;;;;;;;;5068790;28;20024;-69
2021/04/15 18:21:14;;;;;;;15.98;9.00;;;;;;;;;;5069773;28;20045;-69
2021/04/15 18:23:41;;;;;;;17.30;9.30;;;;;;;;;;5069109;28;20012;-68
2021/04/15 18:26:08;;;;;;;19.98;10.45;;;;;;;;;;5069265;28;20020;-70
2021/04/15 18:28:34;;;;;;;17.42;8.65;;;;;;;;;;5068706;28;20111;-71
2021/04/15 18:31:03;;;;;;;17.58;8.38;;;;;;;;;;5068611;28;20024;-74
2021/04/15 18:33:31;;;;;;;12.35;7.05;;;;;;;;;;5068487;28;20024;-69
2021/04/15 18:35:57;;;;;;;14.20;7.68;;;;;;;;;;5069110;28;20028;-70
2021/04/15 18:38:24;;;;;;;11.70;6.47;;;;;;;;;;5072326;28;20052;-68
2021/04/15 18:40:56;;;;;;;14.00;7.45;;;;;;;;;;5066159;28;20040;-69
2021/04/15 18:43:23;;;;;;;9.77;6.00;;;;;;;;;;5071210;28;20016;-70
2021/04/15 18:45:49;;;;;;;15.07;7.25;;;;;;;;;;5072221;28;20021;-72
2021/04/15 18:48:17;;;;;;;15.25;8.13;;;;;;;;;;5070756;28;20016;-69
2021/04/15 18:50:44;;;;;;;12.18;7.43;;;;;;;;;;5071817;28;20056;-69
2021/04/15 18:53:10;;;;;;;13.43;7.82;;;;;;;;;;5072137;28;20052;-71
2021/04/15 18:55:39;;;;;;;12.07;7.13;;;;;;;;;;5071691;28;20056;-74
2021/04/15 18:58:05;;;;;;;14.23;7.47;;;;;;;;;;5180050;22;20087;-67
2021/04/15 19:00:34;;;;;;;10.27;6.38;;;;;;;;;;5057786;28;20036;-80
2021/04/15 19:03:00;;;;;;;11.15;7.18;;;;;;;;;;5072086;28;20024;-71
2021/04/15 19:05:27;;;;;;;11.40;6.50;;;;;;;;;;5056357;28;20032;-68
2021/04/15 19:07:53;;;;;;;16.75;7.60;;;;;;;;;;5070499;28;20133;-69
2021/04/15 19:10:21;;;;;;;14.57;7.43;;;;;;;;;;5071166;28;20036;-68
2021/04/15 19:12:47;;;;;;;17.20;7.45;;;;;;;;;;5055086;28;20024;-67
2021/04/15 19:15:14;;;;;;;12.20;7.70;;;;;;;;;;5056119;28;20032;-69
2021/04/15 19:17:41;;;;;;;10.48;6.35;;;;;;;;;;5069889;28;20103;-71
2021/04/15 19:20:08;;;;;;;13.60;6.53;;;;;;;;;;5071673;28;20059;-66
2021/04/15 19:22:34;;;;;;;11.20;6.72;;;;;;;;;;5071753;28;20369;-71
2021/04/15 19:25:00;;;;;;;15.38;7.18;;;;;;;;;;5053637;28;20032;-68
2021/04/15 19:27:26;;;;;;;15.30;7.65;;;;;;;;;;5071507;28;20040;-72
2021/04/15 19:29:52;;;;;;;12.20;7.07;;;;;;;;;;5070939;28;20092;-62
2021/04/15 19:32:18;;;;;;;16.38;7.60;;;;;;;;;;5071502;28;20484;-64
2021/04/15 19:34:44;;;;;;;13.52;7.47;;;;;;;;;;5071679;28;20494;-68
2021/04/15 19:37:11;;;;;;;16.42;8.60;;;;;;;;;;5071153;28;20074;-73
2021/04/15 19:39:37;;;;;;;15.48;8.60;;;;;;;;;;5053670;28;20028;-74
2021/04/15 19:42:03;;;;;;;17.00;9.00;;;;;;;;;;5071554;28;20032;-73
2021/04/15 19:44:30;;;;;;;17.38;10.63;;;;;;;;;;5070990;28;20024;-71
2021/04/15 19:46:56;;;;;;;20.27;11.10;;;;;;;;;;5070528;28;20457;-69
2021/04/15 19:49:22;;;;;;;22.13;11.55;;;;;;;;;;5211514;22;20069;-61
2021/04/15 19:51:48;;;;;;;15.80;9.73;;;;;;;;;;5089661;28;20064;-60
2021/04/15 19:54:15;;;;;;;19.83;8.93;;;;;;;;;;5072895;28;20115;-61
2021/04/15 19:56:41;;;;;;;18.80;9.60;;;;;;;;;;5091265;28;20035;-60
2021/04/15 19:59:07;;;;;;;17.10;9.25;;;;;;;;;;5090870;28;20028;-62
2021/04/15 20:01:34;;;;;;;19.40;9.85;;;;;;;;;;5090765;28;20028;-60
2021/04/15 20:04:01;;;;;;;16.42;8.73;;;;;;;;;;5083398;28;20024;-60
2021/04/15 20:06:27;;;;;;;16.00;9.07;;;;;;;;;;5081714;28;20020;-69
2021/04/15 20:08:54;;;;;;;15.63;8.80;;;;;;;;;;5081603;28;20032;-61
2021/04/15 20:11:22;;;;;;;19.88;9.65;;;;;;;;;;5088038;28;20032;-62
2021/04/15 20:13:48;;;;;;;16.60;10.02;;;;;;;;;;5089638;28;20035;-61
2021/04/15 20:16:15;;;;;;;23.90;10.43;;;;;;;;;;5091542;28;20020;-61
2021/04/15 20:18:41;;;;;;;22.65;10.10;;;;;;;;;;5088240;28;20437;-62
2021/04/15 20:21:09;;;;;;;26.08;11.38;;;;;;;;;;5081637;28;20028;-60
2021/04/15 20:23:35;;;;;;;20.05;10.27;;;;;;;;;;5082073;28;20475;-63
2021/04/15 20:26:01;;;;;;;21.52;11.23;;;;;;;;;;5089689;28;20031;-63
2021/04/15 20:28:27;;;;;;;25.05;11.13;;;;;;;;;;5085063;28;20099;-67
2021/04/15 20:30:54;;;;;;;22.58;11.38;;;;;;;;;;5080371;28;20475;-60
2021/04/15 20:33:21;;;;;;;27.30;11.30;;;;;;;;;;5082058;28;20020;-63
2021/04/15 20:35:47;;;;;;;21.67;10.63;;;;;;;;;;5080652;28;20146;-72
2021/04/15 20:38:18;;;;;;;27.42;11.52;;;;;;;;;;5080003;28;20028;-73
2021/04/15 20:40:46;;;;;;;20.92;11.02;;;;;;;;;;5084318;28;20024;-73
2021/04/15 20:43:12;;;;;;;28.17;12.50;;;;;;;;;;5088049;28;20479;-69
2021/04/15 20:45:38;;;;;;;33.95;14.55;;;;;;;;;;5079696;28;20027;-74
2021/04/15 20:48:05;;;;;;;27.77;13.18;;;;;;;;;;5079928;28;20064;-66
2021/04/15 20:50:34;;;;;;;30.88;15.60;;;;;;;;;;5075741;28;20052;-72
2021/04/15 20:53:00;;;;;;;37.72;20.08;;;;;;;;;;5069777;28;20020;-61
2021/04/15 20:55:27;;;;;;;42.60;22.55;;;;;;;;;;5060696;28;20025;-66
2021/04/15 20:57:53;;;;;;;39.85;20.50;;;;;;;;;;5074131;28;20090;-76
2021/04/15 21:00:24;;;;;;;34.22;18.42;;;;;;;;;;5069269;28;20471;-65
2021/04/15 21:02:50;;;;;;;39.20;19.00;;;;;;;;;;5067943;28;20569;-72
2021/04/15 21:05:16;;;;;;;34.88;17.75;;;;;;;;;;5070108;28;20117;-70
2021/04/15 21:07:43;;;;;;;35.60;18.33;;;;;;;;;;5070146;28;20488;-71
2021/04/15 21:10:11;;;;;;;34.33;18.05;;;;;;;;;;5070244;28;20063;-69
2021/04/15 21:12:37;;;;;;;39.55;19.20;;;;;;;;;;5070526;28;20055;-79